createdAt,value
2019-05-19T00:00:40.853Z,97.12
2019-05-19T00:01:40.836Z,96.41
2019-05-19T00:02:41.067Z,96.61
2019-05-19T00:03:40.809Z,96.96
2019-05-19T00:04:40.803Z,96.14
2019-05-19T00:05:40.788Z,96.25
2019-05-19T00:06:40.776Z,96.34
2019-05-19T00:07:40.765Z,96.55
2019-05-19T00:08:40.752Z,96.25
2019-05-19T00:09:40.752Z,96.75
2019-05-19T00:10:40.734Z,96.66
2019-05-19T00:11:40.721Z,96.75
2019-05-19T00:12:40.714Z,97.57
2019-05-19T00:13:40.815Z,97.47
2019-05-19T00:14:40.686Z,97.57
2019-05-19T00:15:40.679Z,97.57
2019-05-19T00:16:40.666Z,97.37
2019-05-19T00:17:40.653Z,97.47
2019-05-19T00:18:40.641Z,97.37
2019-05-19T00:19:40.628Z,97.47
2019-05-19T00:20:40.625Z,97.67
2019-05-19T00:21:40.612Z,97.98
2019-05-19T00:22:40.596Z,97.72
2019-05-19T00:23:40.583Z,97.41
2019-05-19T00:24:40.574Z,97.52
2019-05-19T00:25:40.562Z,97.62
2019-05-19T00:26:40.553Z,96.70
2019-05-19T00:27:40.538Z,97.11
2019-05-19T00:28:40.527Z,97.25
2019-05-19T00:29:40.518Z,97.11
2019-05-19T00:30:40.509Z,97.31
2019-05-19T00:31:40.496Z,97.41
2019-05-19T00:32:40.485Z,97.31
2019-05-19T00:33:40.473Z,97.00
2019-05-19T00:34:40.461Z,97.72
2019-05-19T00:35:40.451Z,97.72
2019-05-19T00:36:40.440Z,97.11
2019-05-19T00:37:40.427Z,97.05
2019-05-19T00:38:40.427Z,96.64
2019-05-19T00:39:40.406Z,96.84
2019-05-19T00:40:40.394Z,96.91
2019-05-19T00:41:40.384Z,97.15
2019-05-19T00:42:40.374Z,96.70
2019-05-19T00:43:40.363Z,97.05
2019-05-19T00:44:40.352Z,96.95
2019-05-19T00:45:40.341Z,97.46
2019-05-19T00:46:40.328Z,97.15
2019-05-19T00:47:40.318Z,97.77
2019-05-19T00:48:40.308Z,97.46
2019-05-19T00:49:41.645Z,97.92
2019-05-19T00:50:40.291Z,98.18
2019-05-19T00:51:40.280Z,97.97
2019-05-19T00:52:40.265Z,98.33
2019-05-19T00:53:40.255Z,98.49
2019-05-19T00:54:40.245Z,98.38
2019-05-19T00:55:40.230Z,98.24
2019-05-19T00:56:40.217Z,98.03
2019-05-19T00:57:40.207Z,98.28
2019-05-19T00:58:40.197Z,98.18
2019-05-19T00:59:40.189Z,97.97
2019-05-19T01:00:40.177Z,98.18
2019-05-19T01:01:40.173Z,98.90
2019-05-19T01:02:40.155Z,98.90
2019-05-19T01:03:40.142Z,98.58
2019-05-19T01:04:40.138Z,98.49
2019-05-19T01:05:40.131Z,98.07
2019-05-19T01:06:40.111Z,98.49
2019-05-19T01:07:40.103Z,98.28
2019-05-19T01:08:40.088Z,98.38
2019-05-19T01:09:40.076Z,98.38
2019-05-19T01:10:40.075Z,97.66
2019-05-19T01:11:40.057Z,98.07
2019-05-19T01:12:40.046Z,97.91
2019-05-19T01:13:40.042Z,98.07
2019-05-19T01:14:40.023Z,97.91
2019-05-19T01:15:40.014Z,98.49
2019-05-19T01:16:40.001Z,98.69
2019-05-19T01:17:39.998Z,98.07
2019-05-19T01:18:39.980Z,97.97
2019-05-19T01:19:39.973Z,98.18
2019-05-19T01:20:39.956Z,98.63
2019-05-19T01:21:39.949Z,98.90
2019-05-19T01:22:39.976Z,99.04
2019-05-19T01:23:39.927Z,98.90
2019-05-19T01:24:39.964Z,98.90
2019-05-19T01:25:39.905Z,98.90
2019-05-19T01:26:39.893Z,98.94
2019-05-19T01:27:39.882Z,98.74
2019-05-19T01:28:39.871Z,99.35
2019-05-19T01:29:39.865Z,98.79
2019-05-19T01:30:39.853Z,99.61
2019-05-19T01:31:39.840Z,98.74
2019-05-19T01:32:39.832Z,98.85
2019-05-19T01:33:39.820Z,98.79
2019-05-19T01:34:39.808Z,97.82
2019-05-19T01:35:39.797Z,98.24
2019-05-19T01:36:39.784Z,97.98
2019-05-19T01:37:39.775Z,97.98
2019-05-19T01:38:39.764Z,97.57
2019-05-19T01:39:39.760Z,96.71
2019-05-19T01:40:39.743Z,96.71
2019-05-19T01:41:39.733Z,97.22
2019-05-19T01:42:39.720Z,95.89
2019-05-19T01:43:39.711Z,96.71
2019-05-19T01:44:39.699Z,96.36
2019-05-19T01:45:39.697Z,96.36
2019-05-19T01:46:39.677Z,96.46
2019-05-19T01:47:39.700Z,95.50
2019-05-19T01:48:39.671Z,94.68
2019-05-19T01:49:39.675Z,93.92
2019-05-19T01:50:39.634Z,93.62
2019-05-19T01:51:39.624Z,92.59
2019-05-19T01:52:39.617Z,93.10
2019-05-19T01:53:39.599Z,92.65
2019-05-19T01:54:39.589Z,91.94
2019-05-19T01:55:39.580Z,91.94
2019-05-19T01:56:39.567Z,91.33
2019-05-19T01:57:39.563Z,91.74
2019-05-19T01:58:39.545Z,91.94
2019-05-19T01:59:39.534Z,91.74
2019-05-19T02:00:39.523Z,91.74
2019-05-19T02:01:39.512Z,91.74
2019-05-19T02:02:39.506Z,91.88
2019-05-19T02:03:39.498Z,91.88
2019-05-19T02:04:39.478Z,91.67
2019-05-19T02:05:39.469Z,91.98
2019-05-19T02:06:39.457Z,92.49
2019-05-19T02:07:39.446Z,92.59
2019-05-19T02:08:39.435Z,93.00
2019-05-19T02:09:39.428Z,92.90
2019-05-19T02:10:39.414Z,92.80
2019-05-19T02:11:39.401Z,93.25
2019-05-19T02:12:39.390Z,93.55
2019-05-19T02:13:39.379Z,93.86
2019-05-19T02:14:39.369Z,93.96
2019-05-19T02:15:39.358Z,93.96
2019-05-19T02:16:39.352Z,93.86
2019-05-19T02:17:39.339Z,94.01
2019-05-19T02:18:39.363Z,94.32
2019-05-19T02:19:39.332Z,95.13
2019-05-19T02:20:39.305Z,95.34
2019-05-19T02:21:39.293Z,95.34
2019-05-19T02:22:39.283Z,96.20
2019-05-19T02:23:39.272Z,95.89
2019-05-19T02:24:39.259Z,96.00
2019-05-19T02:25:39.247Z,95.89
2019-05-19T02:26:39.237Z,95.73
2019-05-19T02:27:39.227Z,96.10
2019-05-19T02:28:39.214Z,96.55
2019-05-19T02:29:39.203Z,96.45
2019-05-19T02:30:39.195Z,96.66
2019-05-19T02:31:39.185Z,96.45
2019-05-19T02:32:39.187Z,97.16
2019-05-19T02:33:39.162Z,96.96
2019-05-19T02:34:39.149Z,96.96
2019-05-19T02:35:39.139Z,96.66
2019-05-19T02:36:39.129Z,96.55
2019-05-19T02:37:39.121Z,96.55
2019-05-19T02:38:39.106Z,97.37
2019-05-19T02:39:39.101Z,97.37
2019-05-19T02:40:39.111Z,97.67
2019-05-19T02:41:39.074Z,97.88
2019-05-19T02:42:39.098Z,97.78
2019-05-19T02:43:39.053Z,97.27
2019-05-19T02:44:39.043Z,97.57
2019-05-19T02:45:39.033Z,97.57
2019-05-19T02:46:39.027Z,96.96
2019-05-19T02:47:39.011Z,97.06
2019-05-19T02:48:38.999Z,96.75
2019-05-19T02:49:38.991Z,96.61
2019-05-19T02:50:51.524Z,96.92
2019-05-19T02:51:39.965Z,96.41
2019-05-19T02:52:38.955Z,96.41
2019-05-19T02:53:38.950Z,95.89
2019-05-19T02:54:38.936Z,95.79
2019-05-19T02:55:38.924Z,95.59
2019-05-19T02:56:38.918Z,95.48
2019-05-19T02:57:38.906Z,95.59
2019-05-19T02:58:38.895Z,94.11
2019-05-19T02:59:38.880Z,94.21
2019-05-19T03:00:38.871Z,94.01
2019-05-19T03:01:38.859Z,93.91
2019-05-19T03:02:38.865Z,94.21
2019-05-19T03:03:38.837Z,93.15
2019-05-19T03:04:38.826Z,93.19
2019-05-19T03:05:38.821Z,93.19
2019-05-19T03:06:38.804Z,92.64
2019-05-19T03:07:38.792Z,92.84
2019-05-19T03:08:38.834Z,92.17
2019-05-19T03:09:38.862Z,92.88
2019-05-19T03:10:38.784Z,92.13
2019-05-19T03:11:38.754Z,92.17
2019-05-19T03:12:38.738Z,92.84
2019-05-19T03:13:38.727Z,92.68
2019-05-19T03:14:38.722Z,92.58
2019-05-19T03:15:38.704Z,92.27
2019-05-19T03:16:38.694Z,92.54
2019-05-19T03:17:38.685Z,92.13
2019-05-19T03:18:38.674Z,92.23
2019-05-19T03:19:38.664Z,92.43
2019-05-19T03:20:38.652Z,92.84
2019-05-19T03:21:38.639Z,92.64
2019-05-19T03:22:38.632Z,91.92
2019-05-19T03:23:38.618Z,92.02
2019-05-19T03:24:38.606Z,91.92
2019-05-19T03:25:38.596Z,91.61
2019-05-19T03:26:38.584Z,91.61
2019-05-19T03:27:38.575Z,91.72
2019-05-19T03:28:38.574Z,91.72
2019-05-19T03:29:38.554Z,91.82
2019-05-19T03:30:38.543Z,92.84
2019-05-19T03:31:38.552Z,92.74
2019-05-19T03:32:38.520Z,93.25
2019-05-19T03:33:38.529Z,93.15
2019-05-19T03:34:38.512Z,93.76
2019-05-19T03:35:38.488Z,93.91
2019-05-19T03:36:38.476Z,94.07
2019-05-19T03:37:38.470Z,94.01
2019-05-19T03:38:38.458Z,93.80
2019-05-19T03:39:38.443Z,94.17
2019-05-19T03:40:38.431Z,94.11
2019-05-19T03:41:38.423Z,93.40
2019-05-19T03:42:38.415Z,94.07
2019-05-19T03:43:38.400Z,93.86
2019-05-19T03:44:38.387Z,94.07
2019-05-19T03:45:38.377Z,93.86
2019-05-19T03:46:38.368Z,94.17
2019-05-19T03:47:38.360Z,93.96
2019-05-19T03:48:38.345Z,94.17
2019-05-19T03:49:38.335Z,93.05
2019-05-19T03:50:38.323Z,92.80
2019-05-19T03:51:38.317Z,93.21
2019-05-19T03:52:38.300Z,93.92
2019-05-19T03:53:38.290Z,92.08
2019-05-19T03:54:38.281Z,91.67
2019-05-19T03:55:38.266Z,91.94
2019-05-19T03:56:38.256Z,90.71
2019-05-19T03:57:38.249Z,90.61
2019-05-19T03:58:38.233Z,90.61
2019-05-19T03:59:38.228Z,90.77
2019-05-19T04:00:38.212Z,90.88
2019-05-19T04:01:38.209Z,89.79
2019-05-19T04:02:38.190Z,89.55
2019-05-19T04:03:38.208Z,89.34
2019-05-19T04:04:38.169Z,88.93
2019-05-19T04:05:38.158Z,89.14
2019-05-19T04:06:38.150Z,88.59
2019-05-19T04:07:38.136Z,88.49
2019-05-19T04:08:38.125Z,88.79
2019-05-19T04:09:38.113Z,89.20
2019-05-19T04:10:38.108Z,89.00
2019-05-19T04:11:38.097Z,88.45
2019-05-19T04:12:38.082Z,88.75
2019-05-19T04:13:38.069Z,87.67
2019-05-19T04:14:38.064Z,87.32
2019-05-19T04:15:38.049Z,87.02
2019-05-19T04:16:38.036Z,86.71
2019-05-19T04:17:38.033Z,86.30
2019-05-19T04:18:38.014Z,86.71
2019-05-19T04:19:38.006Z,86.16
2019-05-19T04:20:37.995Z,86.16
2019-05-19T04:21:48.117Z,86.68
2019-05-19T04:22:38.973Z,87.14
2019-05-19T04:23:37.967Z,87.55
2019-05-19T04:24:37.950Z,87.96
2019-05-19T04:25:37.944Z,86.43
2019-05-19T04:26:37.928Z,87.04
2019-05-19T04:27:37.920Z,86.53
2019-05-19T04:28:37.908Z,85.31
2019-05-19T04:29:39.521Z,86.13
2019-05-19T04:30:37.888Z,87.41
2019-05-19T04:31:37.883Z,85.47
2019-05-19T04:32:37.863Z,86.08
2019-05-19T04:33:37.860Z,86.08
2019-05-19T04:34:37.843Z,84.97
2019-05-19T04:35:37.830Z,84.82
2019-05-19T04:36:37.914Z,84.21
2019-05-19T04:37:37.810Z,84.42
2019-05-19T04:38:37.799Z,86.04
2019-05-19T04:39:37.796Z,84.52
2019-05-19T04:40:37.776Z,83.50
2019-05-19T04:41:40.143Z,84.72
2019-05-19T04:42:37.758Z,83.26
2019-05-19T04:43:37.743Z,83.15
2019-05-19T04:44:37.733Z,81.84
2019-05-19T04:45:37.722Z,82.20
2019-05-19T04:46:37.711Z,81.79
2019-05-19T04:47:37.702Z,81.25
2019-05-19T04:48:37.689Z,81.35
2019-05-19T04:49:37.676Z,81.86
2019-05-19T04:50:37.666Z,82.06
2019-05-19T04:51:37.658Z,82.64
2019-05-19T04:52:37.646Z,80.64
2019-05-19T04:53:37.634Z,79.72
2019-05-19T04:54:37.627Z,81.01
2019-05-19T04:55:37.612Z,80.60
2019-05-19T04:56:37.602Z,80.19
2019-05-19T04:57:37.593Z,80.91
2019-05-19T04:58:37.584Z,78.47
2019-05-19T04:59:37.571Z,78.88
2019-05-19T05:00:37.561Z,79.79
2019-05-19T05:01:37.548Z,79.59
2019-05-19T05:02:37.538Z,79.45
2019-05-19T05:03:37.525Z,80.46
2019-05-19T05:04:37.515Z,80.26
2019-05-19T05:05:37.503Z,80.16
2019-05-19T05:06:37.493Z,77.99
2019-05-19T05:07:37.483Z,76.74
2019-05-19T05:08:37.472Z,78.09
2019-05-19T05:09:37.461Z,78.26
2019-05-19T05:10:37.452Z,77.79
2019-05-19T05:11:37.439Z,76.84
2019-05-19T05:12:37.428Z,76.54
2019-05-19T05:13:37.416Z,77.14
2019-05-19T05:14:37.458Z,77.75
2019-05-19T05:15:37.399Z,76.43
2019-05-19T05:16:37.388Z,76.84
2019-05-19T05:17:37.375Z,75.99
2019-05-19T05:18:37.363Z,76.60
2019-05-19T05:19:37.355Z,76.09
2019-05-19T05:20:37.340Z,76.40
2019-05-19T05:21:37.333Z,77.21
2019-05-19T05:22:37.329Z,75.38
2019-05-19T05:23:37.308Z,75.59
2019-05-19T05:24:37.347Z,75.85
2019-05-19T05:25:37.286Z,75.49
2019-05-19T05:26:37.276Z,75.55
2019-05-19T05:27:37.267Z,74.84
2019-05-19T05:28:37.255Z,75.45
2019-05-19T05:29:37.244Z,75.45
2019-05-19T05:30:37.233Z,75.82
2019-05-19T05:31:37.224Z,75.11
2019-05-19T05:32:37.279Z,74.00
2019-05-19T05:33:37.198Z,73.49
2019-05-19T05:34:37.189Z,74.30
2019-05-19T05:35:37.177Z,74.40
2019-05-19T05:36:37.164Z,73.66
2019-05-19T05:37:37.165Z,74.07
2019-05-19T05:38:37.144Z,73.02
2019-05-19T05:39:37.131Z,73.32
2019-05-19T05:40:37.120Z,73.59
2019-05-19T05:41:37.113Z,73.49
2019-05-19T05:42:37.109Z,72.58
2019-05-19T05:43:37.088Z,71.94
2019-05-19T05:44:37.081Z,72.24
2019-05-19T05:45:37.067Z,72.44
2019-05-19T05:46:37.056Z,69.98
2019-05-19T05:47:37.046Z,70.36
2019-05-19T05:48:37.032Z,70.66
2019-05-19T05:49:37.030Z,69.65
2019-05-19T05:50:37.010Z,70.32
2019-05-19T05:51:37.001Z,70.19
2019-05-19T05:52:38.906Z,71.10
2019-05-19T05:53:36.980Z,70.22
2019-05-19T05:54:36.966Z,66.87
2019-05-19T05:55:36.956Z,65.53
2019-05-19T05:56:36.947Z,65.64
2019-05-19T05:57:36.936Z,63.19
2019-05-19T05:58:36.925Z,63.06
2019-05-19T05:59:36.911Z,60.89
2019-05-19T06:00:36.901Z,60.39
2019-05-19T06:01:36.889Z,57.79
2019-05-19T06:02:36.881Z,58.22
2019-05-19T06:03:36.870Z,59.19
2019-05-19T06:04:36.856Z,60.57
2019-05-19T06:05:36.844Z,57.93
2019-05-19T06:06:36.838Z,58.13
2019-05-19T06:07:36.828Z,57.10
2019-05-19T06:08:36.816Z,56.93
2019-05-19T06:09:36.807Z,57.53
2019-05-19T06:10:36.791Z,58.36
2019-05-19T06:11:36.780Z,57.39
2019-05-19T06:12:36.769Z,57.26
2019-05-19T06:13:36.758Z,58.94
2019-05-19T06:14:36.749Z,56.60
2019-05-19T06:15:36.739Z,56.83
2019-05-19T06:16:36.726Z,56.73
2019-05-19T06:17:36.715Z,58.20
2019-05-19T06:18:36.705Z,56.80
2019-05-19T06:19:36.702Z,56.40
2019-05-19T06:20:36.685Z,57.68
2019-05-19T06:21:36.672Z,56.27
2019-05-19T06:22:36.661Z,57.15
2019-05-19T06:23:36.650Z,55.22
2019-05-19T06:24:36.643Z,55.00
2019-05-19T06:25:36.730Z,57.07
2019-05-19T06:26:36.617Z,55.35
2019-05-19T06:27:36.607Z,55.65
2019-05-19T06:28:36.597Z,55.22
2019-05-19T06:29:36.584Z,54.82
2019-05-19T06:30:36.575Z,57.12
2019-05-19T06:31:36.580Z,56.49
2019-05-19T06:32:36.553Z,54.17
2019-05-19T06:33:36.542Z,56.34
2019-05-19T06:34:36.530Z,54.14
2019-05-19T06:35:36.524Z,52.37
2019-05-19T06:36:36.513Z,52.69
2019-05-19T06:37:36.498Z,53.30
2019-05-19T06:38:36.490Z,55.69
2019-05-19T06:39:36.476Z,55.07
2019-05-19T06:40:36.472Z,54.47
2019-05-19T06:41:36.458Z,52.74
2019-05-19T06:42:36.443Z,53.09
2019-05-19T06:43:36.436Z,54.19
2019-05-19T06:44:36.422Z,53.39
2019-05-19T06:45:36.465Z,52.92
2019-05-19T06:46:36.416Z,53.05
2019-05-19T06:47:36.392Z,54.05
2019-05-19T06:48:36.379Z,53.17
2019-05-19T06:49:36.371Z,54.94
2019-05-19T06:50:40.416Z,54.52
2019-05-19T06:51:36.347Z,52.19
2019-05-19T06:52:36.337Z,51.79
2019-05-19T06:53:36.325Z,53.32
2019-05-19T06:54:36.316Z,52.92
2019-05-19T06:55:36.304Z,52.39
2019-05-19T06:56:36.295Z,54.67
2019-05-19T06:57:36.283Z,52.84
2019-05-19T06:58:36.272Z,52.69
2019-05-19T06:59:36.261Z,52.80
2019-05-19T07:00:36.250Z,51.82
2019-05-19T07:01:36.238Z,54.94
2019-05-19T07:02:36.239Z,53.24
2019-05-19T07:03:36.231Z,52.97
2019-05-19T07:04:36.207Z,55.24
2019-05-19T07:05:36.197Z,53.14
2019-05-19T07:06:36.193Z,52.92
2019-05-19T07:07:36.174Z,54.42
2019-05-19T07:08:36.174Z,54.97
2019-05-19T07:09:36.153Z,55.87
2019-05-19T07:10:36.141Z,52.74
2019-05-19T07:11:36.133Z,53.12
2019-05-19T07:12:36.122Z,53.86
2019-05-19T07:13:36.112Z,56.13
2019-05-19T07:14:36.098Z,49.08
2019-05-19T07:15:36.089Z,50.17
2019-05-19T07:16:36.077Z,50.47
2019-05-19T07:17:36.066Z,51.15
2019-05-19T07:18:36.054Z,52.02
2019-05-19T07:19:36.044Z,50.00
2019-05-19T07:20:36.033Z,50.00
2019-05-19T07:21:36.026Z,49.98
2019-05-19T07:22:37.530Z,50.40
2019-05-19T07:23:36.001Z,52.86
2019-05-19T07:24:35.991Z,52.04
2019-05-19T07:25:35.992Z,49.06
2019-05-19T07:26:35.970Z,47.77
2019-05-19T07:27:35.960Z,48.54
2019-05-19T07:28:35.948Z,50.28
2019-05-19T07:29:35.937Z,48.37
2019-05-19T07:30:35.927Z,46.20
2019-05-19T07:31:35.919Z,45.14
2019-05-19T07:32:35.905Z,47.44
2019-05-19T07:33:35.896Z,46.25
2019-05-19T07:34:35.890Z,47.84
2019-05-19T07:35:35.902Z,47.37
2019-05-19T07:36:35.867Z,49.16
2019-05-19T07:37:35.854Z,46.47
2019-05-19T07:38:35.838Z,46.47
2019-05-19T07:39:35.828Z,46.84
2019-05-19T07:40:35.819Z,46.55
2019-05-19T07:41:35.807Z,48.52
2019-05-19T07:42:35.797Z,46.70
2019-05-19T07:43:35.786Z,46.58
2019-05-19T07:44:35.774Z,44.24
2019-05-19T07:45:35.764Z,46.35
2019-05-19T07:46:35.758Z,46.75
2019-05-19T07:47:35.746Z,45.43
2019-05-19T07:48:35.798Z,45.23
2019-05-19T07:49:35.726Z,45.55
2019-05-19T07:50:38.077Z,46.57
2019-05-19T07:51:35.703Z,46.20
2019-05-19T07:52:35.695Z,46.01
2019-05-19T07:53:42.976Z,48.11
2019-05-19T07:54:36.676Z,47.71
2019-05-19T07:55:35.659Z,47.21
2019-05-19T07:56:35.646Z,46.89
2019-05-19T07:57:35.636Z,47.89
2019-05-19T07:58:35.627Z,46.77
2019-05-19T07:59:35.616Z,45.36
2019-05-19T08:00:35.606Z,45.45
2019-05-19T08:01:35.596Z,46.13
2019-05-19T08:02:35.584Z,44.06
2019-05-19T08:03:35.574Z,44.24
2019-05-19T08:04:35.566Z,45.93
2019-05-19T08:05:35.552Z,44.54
2019-05-19T08:06:35.544Z,46.20
2019-05-19T08:07:35.646Z,44.40
2019-05-19T08:08:35.533Z,46.24
2019-05-19T08:09:35.511Z,43.96
2019-05-19T08:10:35.501Z,44.15
2019-05-19T08:11:35.489Z,43.16
2019-05-19T08:12:35.480Z,42.47
2019-05-19T08:13:35.469Z,43.46
2019-05-19T08:14:35.460Z,43.28
2019-05-19T08:15:35.453Z,44.48
2019-05-19T08:16:35.447Z,42.79
2019-05-19T08:17:35.432Z,42.61
2019-05-19T08:18:35.421Z,44.20
2019-05-19T08:19:35.409Z,43.90
2019-05-19T08:20:35.402Z,44.20
2019-05-19T08:21:35.390Z,47.38
2019-05-19T08:22:35.382Z,42.99
2019-05-19T08:23:35.371Z,42.37
2019-05-19T08:24:35.358Z,42.58
2019-05-19T08:25:35.355Z,43.46
2019-05-19T08:26:35.337Z,42.55
2019-05-19T08:27:35.332Z,41.47
2019-05-19T08:28:35.318Z,42.47
2019-05-19T08:29:35.309Z,41.99
2019-05-19T08:30:35.299Z,43.08
2019-05-19T08:31:35.290Z,42.66
2019-05-19T08:32:35.283Z,41.97
2019-05-19T08:33:35.277Z,42.57
2019-05-19T08:34:35.270Z,44.15
2019-05-19T08:35:35.251Z,42.94
2019-05-19T08:36:35.240Z,42.96
2019-05-19T08:37:35.238Z,42.74
2019-05-19T08:38:35.220Z,42.41
2019-05-19T08:39:35.219Z,41.60
2019-05-19T08:40:35.291Z,39.89
2019-05-19T08:41:35.190Z,38.62
2019-05-19T08:42:35.186Z,41.99
2019-05-19T08:43:35.171Z,39.22
2019-05-19T08:44:35.162Z,39.71
2019-05-19T08:45:36.993Z,39.83
2019-05-19T08:46:35.148Z,41.41
2019-05-19T08:47:35.301Z,40.47
2019-05-19T08:48:35.220Z,42.65
2019-05-19T08:49:35.121Z,42.72
2019-05-19T08:50:35.109Z,41.52
2019-05-19T08:51:35.099Z,42.68
2019-05-19T08:52:35.087Z,40.90
2019-05-19T08:53:35.141Z,44.94
2019-05-19T08:54:35.065Z,42.38
2019-05-19T08:55:35.059Z,41.00
2019-05-19T08:56:35.060Z,40.86
2019-05-19T08:57:35.056Z,40.37
2019-05-19T08:58:35.192Z,41.57
2019-05-19T08:59:35.041Z,41.06
2019-05-19T09:00:38.266Z,42.35
2019-05-19T09:01:35.089Z,39.67
2019-05-19T09:02:34.995Z,43.80
2019-05-19T09:03:42.284Z,40.94
2019-05-19T09:05:17.029Z,40.50
2019-05-19T09:06:17.091Z,42.72
2019-05-19T09:07:17.236Z,40.23
2019-05-19T09:08:16.997Z,38.55
2019-05-19T09:09:17.026Z,41.75
2019-05-19T09:10:16.973Z,39.81
2019-05-19T09:11:16.964Z,40.23
2019-05-19T09:12:16.956Z,40.12
2019-05-19T09:13:16.947Z,41.00
2019-05-19T09:14:16.965Z,41.10
2019-05-19T09:15:16.945Z,39.91
2019-05-19T09:16:16.918Z,39.63
2019-05-19T09:17:16.914Z,41.73
2019-05-19T09:18:16.901Z,41.31
2019-05-19T09:19:16.896Z,41.12
2019-05-19T09:20:16.890Z,41.31
2019-05-19T09:21:16.873Z,40.15
2019-05-19T09:22:16.871Z,43.20
2019-05-19T09:23:16.858Z,46.08
2019-05-19T09:24:29.604Z,45.15
2019-05-19T09:25:17.869Z,42.05
2019-05-19T09:26:16.832Z,38.47
2019-05-19T09:27:16.818Z,38.29
2019-05-19T09:28:16.809Z,39.26
2019-05-19T09:29:16.805Z,39.28
2019-05-19T09:30:16.787Z,37.30
2019-05-19T09:31:25.496Z,39.03
2019-05-19T09:32:58.854Z,38.10
2019-05-19T09:33:58.825Z,40.09
2019-05-19T09:34:58.834Z,38.12
2019-05-19T09:35:59.167Z,36.93
2019-05-19T09:36:58.800Z,39.70
2019-05-19T09:37:58.788Z,39.65
2019-05-19T09:39:07.461Z,38.29
2019-05-19T09:40:40.883Z,39.25
2019-05-19T09:41:49.652Z,41.31
2019-05-19T09:43:11.769Z,41.87
2019-05-19T09:44:11.833Z,38.78
2019-05-19T09:45:11.755Z,39.99
2019-05-19T09:46:13.946Z,40.39
2019-05-19T09:47:11.719Z,41.69
2019-05-19T09:48:11.716Z,41.79
2019-05-19T09:49:11.711Z,40.56
2019-05-19T09:50:11.689Z,39.40
2019-05-19T09:51:11.679Z,39.79
2019-05-19T09:52:16.515Z,41.93
2019-05-19T09:53:12.662Z,39.52
2019-05-19T09:54:11.652Z,39.20
2019-05-19T09:55:11.701Z,37.92
2019-05-19T09:56:11.632Z,39.72
2019-05-19T09:57:11.623Z,39.26
2019-05-19T09:58:14.391Z,40.94
2019-05-19T09:59:12.605Z,41.22
2019-05-19T10:00:11.595Z,38.17
2019-05-19T10:01:11.581Z,40.37
2019-05-19T10:02:11.593Z,40.17
2019-05-19T10:03:11.620Z,40.34
2019-05-19T10:04:11.563Z,39.95
2019-05-19T10:05:11.558Z,39.67
2019-05-19T10:06:11.539Z,41.22
2019-05-19T10:07:11.801Z,39.52
2019-05-19T10:08:11.518Z,39.60
2019-05-19T10:09:11.537Z,38.90
2019-05-19T10:10:11.505Z,39.52
2019-05-19T10:11:11.495Z,40.13
2019-05-19T10:12:11.491Z,40.13
2019-05-19T10:13:11.499Z,39.54
2019-05-19T10:14:11.469Z,39.93
2019-05-19T10:15:11.475Z,39.73
2019-05-19T10:16:11.655Z,42.78
2019-05-19T10:17:12.383Z,40.25
2019-05-19T10:18:11.439Z,38.75
2019-05-19T10:19:11.414Z,39.11
2019-05-19T10:20:11.415Z,37.17
2019-05-19T10:21:14.948Z,36.71
2019-05-19T10:22:11.455Z,38.20
2019-05-19T10:23:11.382Z,41.36
2019-05-19T10:24:11.412Z,38.75
2019-05-19T10:25:21.685Z,38.42
2019-05-19T10:26:12.429Z,35.96
2019-05-19T10:27:11.343Z,36.45
2019-05-19T10:28:11.333Z,38.22
2019-05-19T10:29:11.390Z,38.09
2019-05-19T10:30:11.319Z,35.15
2019-05-19T10:31:11.303Z,35.43
2019-05-19T10:32:11.292Z,35.07
2019-05-19T10:33:11.280Z,37.05
2019-05-19T10:34:11.275Z,36.46
2019-05-19T10:35:11.262Z,36.74
2019-05-19T10:36:11.252Z,34.75
2019-05-19T10:37:11.246Z,36.02
2019-05-19T10:38:11.231Z,36.59
2019-05-19T10:39:11.221Z,33.97
2019-05-19T10:40:11.212Z,37.35
2019-05-19T10:41:11.202Z,35.83
2019-05-19T10:42:11.287Z,36.46
2019-05-19T10:43:11.221Z,35.89
2019-05-19T10:44:11.170Z,35.20
2019-05-19T10:45:11.181Z,35.86
2019-05-19T10:46:11.189Z,35.27
2019-05-19T10:47:11.165Z,36.60
2019-05-19T10:48:11.159Z,36.93
2019-05-19T10:49:11.128Z,37.82
2019-05-19T10:50:11.119Z,37.74
2019-05-19T10:51:11.107Z,37.16
2019-05-19T10:52:11.189Z,37.23
2019-05-19T10:53:11.089Z,37.21
2019-05-19T10:54:11.207Z,39.68
2019-05-19T10:55:11.079Z,40.27
2019-05-19T10:56:11.068Z,36.85
2019-05-19T10:57:11.052Z,39.95
2019-05-19T10:58:11.053Z,40.15
2019-05-19T10:59:11.036Z,36.65
2019-05-19T11:00:11.105Z,37.01
2019-05-19T11:01:11.019Z,36.22
2019-05-19T11:02:11.014Z,37.13
2019-05-19T11:03:11.001Z,37.05
2019-05-19T11:04:10.993Z,38.28
2019-05-19T11:05:11.513Z,39.62
2019-05-19T11:06:10.974Z,36.27
2019-05-19T11:07:10.971Z,34.71
2019-05-19T11:08:10.993Z,36.74
2019-05-19T11:09:11.003Z,36.53
2019-05-19T11:10:10.931Z,35.97
2019-05-19T11:11:10.940Z,36.30
2019-05-19T11:12:10.941Z,35.24
2019-05-19T11:13:10.915Z,36.95
2019-05-19T11:14:10.895Z,38.17
2019-05-19T11:15:10.925Z,38.27
2019-05-19T11:16:10.881Z,39.28
2019-05-19T11:17:10.865Z,39.29
2019-05-19T11:18:10.860Z,40.26
2019-05-19T11:19:10.854Z,37.26
2019-05-19T11:20:10.925Z,37.03
2019-05-19T11:21:10.826Z,35.61
2019-05-19T11:22:10.817Z,36.12
2019-05-19T11:23:10.804Z,37.19
2019-05-19T11:24:10.800Z,39.44
2019-05-19T11:25:10.790Z,37.54
2019-05-19T11:26:10.771Z,36.79
2019-05-19T11:27:10.765Z,37.81
2019-05-19T11:28:10.754Z,37.40
2019-05-19T11:29:10.743Z,37.38
2019-05-19T11:30:10.728Z,37.30
2019-05-19T11:31:10.728Z,34.72
2019-05-19T11:32:10.712Z,35.89
2019-05-19T11:33:10.701Z,36.29
2019-05-19T11:34:10.710Z,36.07
2019-05-19T11:35:10.707Z,37.14
2019-05-19T11:36:10.667Z,35.56
2019-05-19T11:37:10.662Z,34.59
2019-05-19T11:38:10.647Z,36.46
2019-05-19T11:39:10.637Z,37.15
2019-05-19T11:40:10.629Z,35.50
2019-05-19T11:41:10.651Z,34.31
2019-05-19T11:42:10.653Z,35.60
2019-05-19T11:43:10.608Z,34.99
2019-05-19T11:44:10.595Z,36.55
2019-05-19T11:45:10.587Z,37.12
2019-05-19T11:46:10.575Z,35.90
2019-05-19T11:47:10.559Z,34.82
2019-05-19T11:48:10.573Z,35.13
2019-05-19T11:49:10.586Z,35.20
2019-05-19T11:50:10.537Z,34.63
2019-05-19T11:51:10.607Z,35.41
2019-05-19T11:52:10.534Z,36.58
2019-05-19T11:53:10.536Z,37.26
2019-05-19T11:54:10.619Z,34.08
2019-05-19T11:55:10.558Z,35.44
2019-05-19T11:56:11.549Z,35.25
2019-05-19T11:57:10.475Z,35.53
2019-05-19T11:58:10.475Z,35.66
2019-05-19T11:59:10.467Z,35.91
2019-05-19T12:00:10.442Z,37.07
2019-05-19T12:01:10.447Z,37.15
2019-05-19T12:02:10.549Z,36.53
2019-05-19T12:03:10.428Z,34.46
2019-05-19T12:04:10.404Z,35.36
2019-05-19T12:05:10.393Z,36.94
2019-05-19T12:06:10.394Z,36.82
2019-05-19T12:07:10.384Z,37.93
2019-05-19T12:08:20.292Z,38.10
2019-05-19T12:09:57.323Z,37.01
2019-05-19T12:10:53.264Z,35.74
2019-05-19T12:11:53.230Z,36.86
2019-05-19T12:12:53.282Z,37.14
2019-05-19T12:13:53.214Z,39.04
2019-05-19T12:14:53.261Z,37.21
2019-05-19T12:15:53.252Z,39.00
2019-05-19T12:16:53.189Z,39.00
2019-05-19T12:17:53.209Z,39.42
2019-05-19T12:18:53.161Z,39.78
2019-05-19T12:19:53.161Z,37.80
2019-05-19T12:20:53.150Z,39.28
2019-05-19T12:21:53.251Z,41.38
2019-05-19T12:22:53.121Z,40.25
2019-05-19T12:23:53.108Z,37.17
2019-05-19T12:24:53.119Z,36.13
2019-05-19T12:25:53.094Z,40.45
2019-05-19T12:26:53.100Z,36.72
2019-05-19T12:27:53.075Z,37.32
2019-05-19T12:28:53.062Z,39.89
2019-05-19T12:29:53.054Z,38.18
2019-05-19T12:30:53.488Z,41.22
2019-05-19T12:31:53.035Z,39.64
2019-05-19T12:32:53.033Z,38.90
2019-05-19T12:33:53.157Z,39.25
2019-05-19T12:34:53.003Z,36.86
2019-05-19T12:35:52.989Z,37.26
2019-05-19T12:36:52.975Z,37.26
2019-05-19T12:37:53.021Z,38.26
2019-05-19T12:38:53.223Z,38.71
2019-05-19T12:39:53.196Z,39.58
2019-05-19T12:40:53.262Z,39.44
2019-05-19T12:42:01.644Z,43.07
2019-05-19T12:43:23.986Z,39.68
2019-05-19T12:44:24.163Z,36.63
2019-05-19T12:45:24.135Z,38.87
2019-05-19T12:46:23.954Z,37.79
2019-05-19T12:47:23.916Z,40.19
2019-05-19T12:48:23.872Z,36.63
2019-05-19T12:49:24.049Z,39.95
2019-05-19T12:50:23.823Z,41.04
2019-05-19T12:51:26.686Z,37.12
2019-05-19T12:52:23.824Z,39.12
2019-05-19T12:53:23.790Z,38.93
2019-05-19T12:54:25.484Z,40.00
2019-05-19T12:55:23.769Z,38.99
2019-05-19T12:56:38.711Z,37.35